Time;durP1;ratioP1;P1;durP2;ratioP2;P2;SDS_P1;SDS_P2;PMS_P1;PMS_P2;Temp;Humidity;BMP_temperature;BMP_pressure;BME280_temperature;BME280_humidity;BME280_pressure;Samples;Min_cycle;Max_cycle;Signal;HPM_P1;HPM_P2
2022/08/04 00:00:03;;;;;;;3.43;2.63;;;;;;;19.25;91.83;100663.81;5027755;28;20196;-73
2022/08/04 00:02:58;;;;;;;5.53;2.40;;;;;;;19.25;93.31;100662.97;5023177;28;20203;-74
2022/08/04 00:05:35;;;;;;;4.47;3.10;;;;;;;19.23;93.37;100663.06;5025024;28;20567;-74
2022/08/04 00:08:21;;;;;;;4.17;2.30;;;;;;;19.19;92.26;100668.63;5023344;28;20382;-73
2022/08/04 00:10:52;;;;;;;3.53;2.50;;;;;;;19.16;93.85;100663.56;5022566;28;20612;-73
2022/08/04 00:13:22;;;;;;;3.03;2.73;;;;;;;19.13;94.17;100666.38;5011026;28;20204;-73
2022/08/04 00:15:52;;;;;;;2.67;2.47;;;;;;;19.09;93.49;100660.44;5019777;28;20199;-74
2022/08/04 00:18:22;;;;;;;3.97;2.50;;;;;;;19.06;93.92;100666.75;5022559;28;20200;-74
2022/08/04 00:20:51;;;;;;;3.13;2.67;;;;;;;19.06;95.01;100663.25;5024826;28;20581;-73
2022/08/04 00:23:18;;;;;;;3.07;2.53;;;;;;;19.08;95.13;100666.66;5030119;28;20210;-72
2022/08/04 00:25:45;;;;;;;2.83;2.30;;;;;;;19.05;95.02;100662.41;5025801;28;20554;-73
2022/08/04 00:28:12;;;;;;;2.83;2.53;;;;;;;19.06;95.29;100665.91;5021284;28;20227;-73
2022/08/04 00:30:42;;;;;;;4.23;3.13;;;;;;;19.00;94.82;100666.28;5025855;28;20219;-73
2022/08/04 00:33:09;;;;;;;2.77;2.47;;;;;;;19.00;96.00;100663.66;5021263;28;20602;-73
2022/08/04 00:35:39;;;;;;;3.03;2.50;;;;;;;18.96;95.04;100665.63;5018824;28;20210;-73
2022/08/04 00:38:06;;;;;;;3.83;2.57;;;;;;;18.96;96.16;100665.63;5017151;28;20218;-73
2022/08/04 00:40:39;;;;;;;3.17;2.83;;;;;;;18.93;96.00;100665.81;5019638;28;20216;-74
2022/08/04 00:43:16;;;;;;;3.33;2.80;;;;;;;18.91;95.83;100665.06;5038134;23;20571;-73
2022/08/04 00:46:20;;;;;;;2.80;2.27;;;;;;;18.85;95.80;100663.59;5022848;28;20771;-73
2022/08/04 00:49:18;;;;;;;2.57;2.10;;;;;;;18.87;96.36;100661.75;5019573;28;20218;-73
2022/08/04 00:51:49;;;;;;;4.03;2.70;;;;;;;18.90;97.78;100665.97;5000425;28;20274;-73
2022/08/04 00:54:26;;;;;;;3.00;2.70;;;;;;;18.90;97.60;100660.69;5012422;28;20204;-74
2022/08/04 00:57:13;;;;;;;3.23;2.93;;;;;;;18.88;97.57;100667.88;5022618;28;20265;-74
2022/08/04 00:59:58;;;;;;;3.87;3.00;;;;;;;18.83;96.91;100670.78;5020181;28;20310;-73
2022/08/04 01:02:35;;;;;;;3.33;3.03;;;;;;;18.79;97.64;100665.75;5024179;28;20223;-74
2022/08/04 01:05:06;;;;;;;2.60;2.40;;;;;;;18.76;97.89;100672.06;5029622;28;20206;-74
2022/08/04 01:07:49;;;;;;;3.47;2.57;;;;;;;18.74;98.55;100671.31;5019567;28;20232;-73
2022/08/04 01:10:24;;;;;;;3.03;2.63;;;;;;;18.69;97.63;100670.72;5027965;28;20531;-73
2022/08/04 01:13:08;;;;;;;2.70;2.50;;;;;;;18.73;99.31;100672.22;5020268;28;20208;-73
2022/08/04 01:15:44;;;;;;;3.13;2.43;;;;;;;18.69;98.27;100678.66;5021538;28;20553;-73
2022/08/04 01:18:21;;;;;;;5.20;3.07;;;;;;;18.69;98.18;100668.94;5020111;28;20235;-73
2022/08/04 01:21:00;;;;;;;3.90;2.67;;;;;;;18.68;98.44;100674.28;5019725;28;20199;-73
2022/08/04 01:23:59;;;;;;;3.70;2.70;;;;;;;18.65;98.89;100674.50;5021054;28;20207;-73
2022/08/04 01:26:55;;;;;;;3.20;2.50;;;;;;;18.62;99.41;100677.31;4986641;28;20696;-73
2022/08/04 01:29:26;;;;;;;5.40;2.67;;;;;;;18.63;100.00;100674.59;5015458;28;20219;-73
2022/08/04 01:32:01;;;;;;;4.13;2.90;;;;;;;18.62;100.00;100670.22;5019999;28;20570;-73
2022/08/04 01:34:30;;;;;;;3.20;2.90;;;;;;;18.58;100.00;100674.00;5016415;28;20200;-74
2022/08/04 01:37:06;;;;;;;3.53;2.80;;;;;;;18.51;99.84;100676.16;5015811;28;20223;-73
2022/08/04 01:39:41;;;;;;;3.57;2.63;;;;;;;18.53;100.00;100674.25;5011512;28;20192;-74
2022/08/04 01:42:08;;;;;;;3.17;2.60;;;;;;;18.48;100.00;100675.47;5017054;28;20222;-74
2022/08/04 01:44:38;;;;;;;3.50;2.50;;;;;;;18.44;100.00;100677.44;4990775;28;20223;-73
2022/08/04 01:47:04;;;;;;;3.10;2.70;;;;;;;18.44;100.00;100677.44;5014865;28;20230;-73
2022/08/04 01:49:32;;;;;;;4.87;2.67;;;;;;;18.41;100.00;100669.69;5024790;28;20231;-73
2022/08/04 01:51:59;;;;;;;3.40;2.70;;;;;;;18.38;100.00;100672.53;5025873;28;20703;-74
2022/08/04 01:54:26;;;;;;;2.97;2.50;;;;;;;18.38;100.00;100679.59;5008271;28;20290;-73
2022/08/04 01:56:54;;;;;;;3.20;2.70;;;;;;;18.32;100.00;100671.09;5017294;28;20675;-73
2022/08/04 01:59:22;;;;;;;2.90;2.60;;;;;;;18.34;100.00;100671.00;5013154;28;20203;-74
2022/08/04 02:01:50;;;;;;;2.83;2.40;;;;;;;18.35;100.00;100673.56;5012860;28;20227;-73
2022/08/04 02:04:18;;;;;;;2.80;2.50;;;;;;;18.35;100.00;100672.72;5009655;28;20197;-73
2022/08/04 02:07:02;;;;;;;4.90;2.77;;;;;;;18.33;100.00;100678.06;5003824;28;20196;-73
2022/08/04 02:09:38;;;;;;;3.60;2.60;;;;;;;18.33;100.00;100679.88;5013299;28;20211;-73
2022/08/04 02:12:09;;;;;;;3.40;2.50;;;;;;;18.28;100.00;100676.66;5020424;28;20195;-73
2022/08/04 02:14:45;;;;;;;3.53;2.47;;;;;;;18.23;100.00;100671.63;5008930;28;20201;-73
2022/08/04 02:17:15;;;;;;;4.50;2.60;;;;;;;18.26;100.00;100667.97;5010976;28;20212;-74
2022/08/04 02:19:57;;;;;;;3.67;3.20;;;;;;;18.22;100.00;100675.19;5028074;28;20199;-74
2022/08/04 02:22:27;;;;;;;3.87;2.83;;;;;;;18.20;100.00;100673.59;5028995;28;20207;-73
2022/08/04 02:24:58;;;;;;;3.63;2.70;;;;;;;18.22;100.00;100671.69;5009246;28;20211;-73
2022/08/04 02:28:08;;;;;;;4.43;2.90;;;;;;;18.24;100.00;100673.34;5016804;28;20224;-73
2022/08/04 02:30:43;;;;;;;3.17;2.80;;;;;;;18.19;100.00;100670.09;4995861;28;20575;-73
2022/08/04 02:33:13;;;;;;;2.87;2.57;;;;;;;18.19;100.00;100669.22;5025954;28;20214;-74
2022/08/04 02:35:41;;;;;;;3.00;2.50;;;;;;;18.19;100.00;100671.88;5027945;28;20192;-74
2022/08/04 02:38:16;;;;;;;6.33;3.10;;;;;;;18.17;100.00;100667.56;5024786;28;20671;-73
2022/08/04 02:40:43;;;;;;;3.60;2.87;;;;;;;18.20;100.00;100663.88;5025252;28;20195;-73
2022/08/04 02:43:10;;;;;;;3.60;3.13;;;;;;;18.17;100.00;100664.91;5018394;28;20209;-73
2022/08/04 02:45:37;;;;;;;3.33;2.70;;;;;;;18.20;100.00;100670.94;5014225;28;20212;-74
2022/08/04 02:48:05;;;;;;;3.20;2.80;;;;;;;18.18;100.00;100668.41;5017194;28;20231;-74
2022/08/04 02:50:37;;;;;;;3.00;2.63;;;;;;;18.18;100.00;100668.41;5021450;28;20693;-74
2022/08/04 02:53:04;;;;;;;3.10;2.80;;;;;;;18.21;100.00;100664.75;4999829;28;20658;-73
2022/08/04 02:55:32;;;;;;;3.07;2.73;;;;;;;18.16;100.00;100668.47;5013268;28;20294;-73
2022/08/04 02:58:03;;;;;;;3.03;2.70;;;;;;;18.17;100.00;100670.19;5026320;28;20238;-73
2022/08/04 03:00:30;;;;;;;3.83;2.93;;;;;;;18.18;100.00;100665.75;5019965;28;20227;-73
2022/08/04 03:03:07;;;;;;;3.67;2.80;;;;;;;18.16;100.00;100668.47;5012666;28;20200;-73
2022/08/04 03:05:53;;;;;;;3.57;2.87;;;;;;;18.16;100.00;100660.56;5015190;28;20193;-74
2022/08/04 03:09:05;;;;;;;2.70;2.50;;;;;;;18.16;100.00;100675.56;5023885;28;20439;-74
2022/08/04 03:11:56;;;;;;;2.73;2.50;;;;;;;18.10;100.00;100671.47;4981566;28;20204;-73
2022/08/04 03:14:53;;;;;;;2.80;2.50;;;;;;;18.07;100.00;100674.28;5019857;28;20196;-74
2022/08/04 03:17:54;;;;;;;3.60;2.77;;;;;;;18.07;100.00;100679.56;4989808;28;20353;-73
2022/08/04 03:20:56;;;;;;;3.23;2.60;;;;;;;18.08;100.00;100675.13;4988791;28;20212;-74
2022/08/04 03:23:39;;;;;;;3.93;2.90;;;;;;;18.03;100.00;100672.75;5006168;28;20195;-73
2022/08/04 03:26:30;;;;;;;4.07;3.00;;;;;;;18.07;100.00;100673.44;5012538;28;20212;-74
2022/08/04 03:29:36;;;;;;;3.03;2.63;;;;;;;18.03;100.00;100671.91;5019381;28;20213;-73
2022/08/04 03:32:43;;;;;;;3.13;2.83;;;;;;;18.06;100.00;100671.72;5008950;28;20567;-74
2022/08/04 03:35:27;;;;;;;3.03;2.63;;;;;;;18.07;100.00;100660.25;5014317;28;20203;-73
2022/08/04 03:38:17;;;;;;;3.43;2.97;;;;;;;18.08;100.00;100669.84;5016900;28;20642;-74
2022/08/04 03:41:04;;;;;;;3.30;2.77;;;;;;;18.10;100.00;100674.13;5019973;28;20543;-74
2022/08/04 03:43:56;;;;;;;3.00;2.70;;;;;;;18.10;100.00;100671.47;5029253;28;20290;-74
2022/08/04 03:46:41;;;;;;;6.73;3.00;;;;;;;18.14;100.00;100672.16;5009164;28;20204;-73
2022/08/04 03:49:39;;;;;;;3.13;2.73;;;;;;;18.15;100.00;100673.84;5028344;28;20212;-73
2022/08/04 03:55:33;;;;;;;3.33;2.90;;;;;;;18.19;100.00;100674.50;5022872;28;20274;-74
2022/08/04 03:58:51;;;;;;;3.20;2.70;;;;;;;18.23;100.00;100671.63;5025881;28;20255;-73
2022/08/04 04:01:51;;;;;;;3.93;2.97;;;;;;;18.28;100.00;100668.72;5024120;28;20303;-74
2022/08/04 04:04:43;;;;;;;3.50;3.00;;;;;;;18.30;99.51;100667.69;5016676;28;20943;-73
2022/08/04 04:07:40;;;;;;;3.43;3.00;;;;;;;18.34;99.92;100663.91;5021357;28;20744;-73
2022/08/04 04:10:41;;;;;;;5.13;2.60;;;;;;;18.38;100.00;100667.25;5025322;28;20692;-73
2022/08/04 04:13:28;;;;;;;3.17;2.87;;;;;;;18.45;99.78;100660.69;5021688;28;20236;-74
2022/08/04 04:16:39;;;;;;;4.07;3.07;;;;;;;18.54;98.89;100672.50;5021822;28;20216;-74
2022/08/04 04:19:37;;;;;;;3.03;2.73;;;;;;;18.65;98.42;100670.06;4983862;28;20216;-74
2022/08/04 04:22:24;;;;;;;3.37;2.50;;;;;;;18.73;95.97;100673.09;5019819;28;20669;-74
2022/08/04 04:25:11;;;;;;;4.93;2.67;;;;;;;18.84;96.30;100669.00;5024000;28;20211;-73
2022/08/04 04:27:58;;;;;;;4.37;3.00;;;;;;;18.97;93.35;100672.59;5029268;28;20215;-74
2022/08/04 04:30:36;;;;;;;3.27;2.53;;;;;;;19.14;92.89;100686.56;5033761;28;20235;-73
2022/08/04 04:33:21;;;;;;;3.40;3.03;;;;;;;19.29;91.69;100677.69;5015090;28;20654;-74
2022/08/04 04:35:59;;;;;;;3.87;2.47;;;;;;;19.40;92.14;100685.81;5021726;28;20200;-73
2022/08/04 04:38:45;;;;;;;4.10;2.87;;;;;;;19.51;90.93;100677.22;5027012;28;20219;-74
2022/08/04 04:41:31;;;;;;;3.67;2.87;;;;;;;19.64;90.15;100682.56;5025480;28;20207;-74
2022/08/04 04:44:14;;;;;;;2.80;2.50;;;;;;;19.76;88.63;100678.34;5032977;28;20209;-74
2022/08/04 04:46:45;;;;;;;3.73;2.83;;;;;;;19.89;87.83;100681.88;5020200;28;20207;-74
2022/08/04 04:49:22;;;;;;;3.13;2.63;;;;;;;20.02;87.62;100676.66;5021987;28;20204;-74
2022/08/04 04:51:51;;;;;;;2.80;2.40;;;;;;;20.14;86.16;100677.66;5013838;28;20204;-74
2022/08/04 04:54:28;;;;;;;2.40;2.20;;;;;;;20.32;83.80;100686.19;5023336;28;20215;-74
2022/08/04 04:57:05;;;;;;;3.87;3.20;;;;;;;20.48;83.76;100686.03;5021247;28;20224;-74
2022/08/04 04:59:36;;;;;;;3.57;2.47;;;;;;;20.59;84.01;100678.19;5020944;28;20211;-74
2022/08/04 05:02:36;;;;;;;3.10;2.70;;;;;;;20.72;81.31;100683.53;5026840;28;20626;-74
2022/08/04 05:05:27;;;;;;;4.07;2.33;;;;;;;20.87;81.19;100687.81;5020938;28;20200;-73
2022/08/04 05:08:26;;;;;;;3.00;2.43;;;;;;;21.03;81.14;100690.25;5019821;28;20227;-74
2022/08/04 05:11:09;;;;;;;2.27;2.07;;;;;;;21.16;80.58;100692.91;5029599;28;20691;-74
2022/08/04 05:13:38;;;;;;;3.27;2.40;;;;;;;21.28;78.07;100693.84;5019015;28;20195;-74
2022/08/04 05:16:14;;;;;;;2.27;2.07;;;;;;;21.39;77.84;100693.94;5014600;28;20201;-74
2022/08/04 05:18:44;;;;;;;2.80;2.20;;;;;;;21.52;77.19;100691.31;5005772;28;20234;-74
2022/08/04 05:21:24;;;;;;;5.03;2.20;;;;;;;21.64;75.86;100697.56;5018923;28;20570;-74
2022/08/04 05:23:59;;;;;;;3.20;2.40;;;;;;;21.73;75.16;100691.56;5012782;28;20593;-74
2022/08/04 05:26:31;;;;;;;2.43;2.20;;;;;;;21.87;75.17;100683.44;5011046;28;20206;-74
2022/08/04 05:29:02;;;;;;;4.30;2.40;;;;;;;22.01;73.75;100684.25;5017725;28;20224;-74
2022/08/04 05:31:39;;;;;;;2.30;2.10;;;;;;;22.14;74.33;100687.69;5019630;28;20280;-74
2022/08/04 05:34:10;;;;;;;2.00;1.80;;;;;;;22.26;72.48;100685.94;5023086;28;20672;-74
2022/08/04 05:36:40;;;;;;;2.47;2.07;;;;;;;22.39;72.48;100693.88;5016706;28;20199;-74
2022/08/04 05:39:11;;;;;;;2.13;1.90;;;;;;;22.46;71.29;100685.34;5017470;28;20670;-74
2022/08/04 05:41:40;;;;;;;2.43;2.23;;;;;;;22.65;69.59;100689.25;5028075;28;20180;-74
2022/08/04 05:44:08;;;;;;;1.80;1.70;;;;;;;22.76;68.67;100694.63;5022867;28;20208;-74
2022/08/04 05:46:37;;;;;;;2.80;2.30;;;;;;;22.88;68.20;100693.69;5014808;28;20211;-74
2022/08/04 05:49:04;;;;;;;2.57;1.90;;;;;;;23.00;67.22;100701.66;5012961;28;20223;-74
2022/08/04 05:51:31;;;;;;;2.90;2.27;;;;;;;23.12;66.28;100691.91;5022359;28;20204;-74
2022/08/04 05:53:58;;;;;;;3.53;2.10;;;;;;;23.24;66.16;100696.28;5027090;28;20200;-74
2022/08/04 05:56:26;;;;;;;2.07;1.80;;;;;;;23.36;64.33;100692.66;5025547;28;20199;-74
2022/08/04 05:58:54;;;;;;;4.90;2.07;;;;;;;23.52;63.74;100692.28;5019224;28;20255;-74
2022/08/04 06:01:21;;;;;;;3.10;2.17;;;;;;;23.63;63.63;100689.59;5019449;28;20255;-74
2022/08/04 06:03:50;;;;;;;2.67;1.95;;;;;;;23.70;63.18;100689.94;5015851;28;20204;-74
2022/08/04 06:06:18;;;;;;;2.63;2.08;;;;;;;23.82;63.62;100696.16;5013675;28;20250;-74
2022/08/04 06:08:44;;;;;;;2.28;1.77;;;;;;;23.94;62.01;100691.63;5020637;28;20251;-74
2022/08/04 06:11:12;;;;;;;2.20;2.00;;;;;;;24.02;61.98;100693.66;5019422;28;20231;-74
2022/08/04 06:13:43;;;;;;;2.60;1.92;;;;;;;24.14;61.35;100700.66;5012092;28;20565;-74
2022/08/04 06:16:13;;;;;;;2.63;1.88;;;;;;;24.30;61.90;100700.22;5021789;28;20234;-74
2022/08/04 06:18:43;;;;;;;2.17;1.98;;;;;;;24.39;60.20;100702.13;5021837;28;20227;-74
2022/08/04 06:21:13;;;;;;;1.83;1.73;;;;;;;24.55;59.38;100707.03;5019642;28;20194;-74
2022/08/04 06:23:42;;;;;;;2.53;2.00;;;;;;;24.66;59.09;100708.81;5014782;28;20561;-74
2022/08/04 06:26:17;;;;;;;2.15;1.80;;;;;;;24.79;57.94;100704.13;5019213;28;20200;-74
2022/08/04 06:28:44;;;;;;;2.47;1.77;;;;;;;24.90;57.42;100711.22;5015172;28;20397;-74
2022/08/04 06:31:11;;;;;;;2.30;2.10;;;;;;;25.03;57.58;100709.22;5004929;28;20212;-74
2022/08/04 06:33:38;;;;;;;2.35;1.80;;;;;;;25.14;57.36;100708.28;5018248;28;20194;-74
2022/08/04 06:36:06;;;;;;;1.88;1.73;;;;;;;25.29;55.73;100708.78;5019940;28;20201;-74
2022/08/04 06:38:35;;;;;;;2.25;1.73;;;;;;;25.44;56.43;100720.78;5018976;28;20704;-74
2022/08/04 06:41:08;;;;;;;1.65;1.50;;;;;;;25.57;55.82;100709.03;5016194;28;20205;-74
2022/08/04 06:43:36;;;;;;;2.03;1.83;;;;;;;25.68;55.18;100709.78;5015990;28;20292;-74
2022/08/04 06:46:04;;;;;;;2.17;1.73;;;;;;;25.85;54.66;100707.44;5020324;28;20200;-74
2022/08/04 06:48:32;;;;;;;2.85;1.92;;;;;;;25.96;54.44;100710.03;5000516;28;20228;-74
2022/08/04 06:51:00;;;;;;;1.75;1.65;;;;;;;26.08;53.91;100708.06;5014379;28;20230;-74
2022/08/04 06:53:28;;;;;;;2.25;2.00;;;;;;;26.17;54.32;100701.88;5015234;28;20204;-74
2022/08/04 06:55:57;;;;;;;1.88;1.67;;;;;;;26.25;53.32;100707.38;5015257;28;20200;-74
2022/08/04 06:58:25;;;;;;;3.00;2.00;;;;;;;26.37;52.66;100710.75;5020707;28;20620;-74
2022/08/04 07:00:53;;;;;;;1.95;1.73;;;;;;;26.51;51.27;100722.00;5014372;28;20207;-74
2022/08/04 07:03:20;;;;;;;2.33;2.05;;;;;;;26.62;51.55;100712.03;5016050;28;20232;-74
2022/08/04 07:05:48;;;;;;;1.88;1.70;;;;;;;26.77;51.09;100711.59;5019519;28;20227;-74
2022/08/04 07:08:15;;;;;;;2.88;1.95;;;;;;;26.85;50.71;100710.88;5016084;28;20227;-74
2022/08/04 07:10:41;;;;;;;2.05;1.88;;;;;;;26.93;51.05;100711.00;5013583;28;20204;-74
2022/08/04 07:13:10;;;;;;;2.25;2.00;;;;;;;27.05;50.72;100711.66;5020681;28;20207;-74
2022/08/04 07:15:41;;;;;;;3.55;2.08;;;;;;;27.18;49.93;100709.53;5018643;28;20196;-74
2022/08/04 07:18:07;;;;;;;2.22;2.00;;;;;;;27.25;49.99;100715.97;4998545;28;20232;-74
2022/08/04 07:20:34;;;;;;;2.17;1.98;;;;;;;27.39;48.49;100714.69;5012646;28;20197;-74
2022/08/04 07:23:02;;;;;;;2.10;1.90;;;;;;;27.52;47.61;100717.84;5001409;28;20204;-74
2022/08/04 07:25:28;;;;;;;2.15;1.95;;;;;;;27.66;47.81;100715.69;5020323;28;20217;-74
2022/08/04 07:27:55;;;;;;;2.10;1.90;;;;;;;27.78;48.02;100709.13;5015815;28;20227;-74
2022/08/04 07:30:25;;;;;;;4.40;1.75;;;;;;;27.89;47.81;100708.91;5023060;28;20213;-74
2022/08/04 07:32:52;;;;;;;2.13;1.92;;;;;;;27.97;47.37;100710.88;5024001;28;20627;-74
2022/08/04 07:35:20;;;;;;;2.05;1.88;;;;;;;28.12;47.11;100708.50;5019635;28;20200;-74
2022/08/04 07:37:47;;;;;;;1.90;1.73;;;;;;;28.29;46.83;100710.34;4996536;28;20716;-74
2022/08/04 07:40:13;;;;;;;1.70;1.60;;;;;;;28.35;45.93;100708.88;5014836;28;20200;-74
2022/08/04 07:42:40;;;;;;;2.25;1.90;;;;;;;28.46;46.15;100707.81;5021645;28;20564;-74
2022/08/04 07:45:08;;;;;;;2.05;1.85;;;;;;;28.63;45.13;100698.94;4999535;28;20310;-74
2022/08/04 07:47:37;;;;;;;1.95;1.75;;;;;;;28.74;45.13;100697.00;5009894;28;20866;-74
2022/08/04 07:50:04;;;;;;;3.22;1.73;;;;;;;28.87;44.38;100706.31;5020025;28;20879;-74
2022/08/04 07:52:31;;;;;;;2.38;1.73;;;;;;;29.01;43.58;100701.38;5022303;28;20877;-74
2022/08/04 07:54:58;;;;;;;2.13;1.90;;;;;;;29.11;44.39;100703.94;5015088;28;20209;-74
2022/08/04 07:57:25;;;;;;;3.85;1.85;;;;;;;29.19;43.58;100704.03;5016755;28;20739;-74
2022/08/04 07:59:51;;;;;;;1.60;1.50;;;;;;;29.33;43.70;100708.78;5017798;28;20211;-74
2022/08/04 08:02:20;;;;;;;2.45;1.90;;;;;;;29.47;43.20;100707.34;5016893;28;20207;-74
2022/08/04 08:04:48;;;;;;;1.80;1.70;;;;;;;29.58;42.77;100709.72;5010854;28;20192;-74
2022/08/04 08:07:15;;;;;;;4.05;1.52;;;;;;;29.67;42.03;100702.53;5014624;28;20220;-74
2022/08/04 08:09:41;;;;;;;1.50;1.40;;;;;;;29.80;42.76;100704.81;5008639;28;20224;-75
2022/08/04 08:12:10;;;;;;;1.50;1.40;;;;;;;29.89;41.34;100701.13;5010548;28;20311;-74
2022/08/04 08:14:37;;;;;;;1.75;1.65;;;;;;;29.99;40.78;100696.44;5012509;28;20204;-74
2022/08/04 08:17:04;;;;;;;1.60;1.48;;;;;;;30.13;40.05;100694.97;5018320;28;20220;-74
2022/08/04 08:19:31;;;;;;;1.63;1.52;;;;;;;30.27;40.20;100693.47;5018831;28;20197;-75
2022/08/04 08:22:00;;;;;;;1.58;1.48;;;;;;;30.32;39.26;100691.09;5016340;28;20208;-74
2022/08/04 08:24:27;;;;;;;1.58;1.40;;;;;;;30.42;39.87;100692.81;5014500;28;20200;-74
2022/08/04 08:26:54;;;;;;;2.55;1.80;;;;;;;30.58;39.09;100685.56;5017992;28;20216;-74
2022/08/04 08:29:21;;;;;;;1.63;1.52;;;;;;;30.67;39.32;100690.94;5017265;28;20432;-74
2022/08/04 08:31:47;;;;;;;1.60;1.50;;;;;;;30.71;38.10;100687.75;5019413;28;20212;-74
2022/08/04 08:34:14;;;;;;;1.70;1.42;;;;;;;30.77;38.39;100689.75;5014909;28;20210;-74
2022/08/04 08:36:46;;;;;;;1.63;1.52;;;;;;;30.80;38.82;100687.72;5020950;28;20207;-75
2022/08/04 08:39:19;;;;;;;1.50;1.40;;;;;;;30.80;39.00;100691.28;5013472;28;20197;-74
2022/08/04 08:42:14;;;;;;;1.50;1.40;;;;;;;30.92;38.85;100683.66;5014757;28;20200;-74
2022/08/04 08:45:20;;;;;;;1.40;1.30;;;;;;;31.10;37.22;100691.56;5019285;28;20205;-74
2022/08/04 08:48:12;;;;;;;1.40;1.30;;;;;;;31.29;37.49;100690.31;5012301;28;20231;-74
2022/08/04 08:50:59;;;;;;;1.98;1.58;;;;;;;31.49;37.15;100694.31;5016135;28;20585;-74
2022/08/04 08:53:54;;;;;;;1.88;1.77;;;;;;;31.64;35.67;100683.59;5015070;28;20265;-74
2022/08/04 08:56:33;;;;;;;2.28;1.65;;;;;;;31.84;36.62;100686.72;5015590;28;20972;-74
2022/08/04 08:59:16;;;;;;;1.38;1.15;;;;;;;31.96;36.90;100683.59;5012128;28;20203;-74
2022/08/04 09:02:00;;;;;;;1.90;1.52;;;;;;;31.97;35.37;100685.28;5018874;28;20579;-74
2022/08/04 09:04:48;;;;;;;1.73;1.63;;;;;;;32.05;35.96;100683.41;5017745;28;20209;-74
2022/08/04 09:07:31;;;;;;;1.60;1.50;;;;;;;32.07;37.40;100680.53;5013726;28;20212;-74
2022/08/04 09:10:05;;;;;;;1.67;1.58;;;;;;;32.22;35.88;100688.66;5020667;28;20206;-74
2022/08/04 09:12:41;;;;;;;1.50;1.40;;;;;;;32.21;36.04;100687.00;5014215;28;20203;-74
2022/08/04 09:15:13;;;;;;;1.70;1.60;;;;;;;32.34;34.91;100684.50;5015494;28;20199;-74
2022/08/04 09:17:45;;;;;;;1.50;1.30;;;;;;;32.48;34.97;100688.28;5005114;28;20739;-74
2022/08/04 09:20:18;;;;;;;3.90;1.50;;;;;;;32.60;33.73;100686.84;5000785;28;21182;-74
2022/08/04 09:22:50;;;;;;;1.98;1.58;;;;;;;32.71;35.30;100688.25;5023254;28;20200;-74
2022/08/04 09:25:23;;;;;;;1.67;1.58;;;;;;;32.80;34.59;100676.34;5007680;28;20203;-75
2022/08/04 09:27:54;;;;;;;2.78;1.70;;;;;;;33.02;32.91;100679.16;5017286;28;20220;-74
2022/08/04 09:30:26;;;;;;;1.75;1.50;;;;;;;33.11;33.54;100677.22;5016995;28;20208;-74
2022/08/04 09:33:01;;;;;;;1.50;1.40;;;;;;;33.14;34.34;100671.44;5012362;28;20196;-74
2022/08/04 09:35:40;;;;;;;1.85;1.40;;;;;;;33.18;34.07;100673.59;4999758;28;20208;-75
2022/08/04 09:38:15;;;;;;;1.70;1.60;;;;;;;33.32;33.08;100671.91;5016729;28;20701;-75
2022/08/04 09:40:48;;;;;;;1.70;1.60;;;;;;;33.36;34.09;100665.09;5011992;28;20211;-75
2022/08/04 09:43:28;;;;;;;1.25;1.15;;;;;;;33.43;33.27;100673.28;5020532;28;21268;-74
2022/08/04 09:46:03;;;;;;;1.30;1.20;;;;;;;33.50;31.85;100678.78;5007624;28;20656;-75
2022/08/04 09:48:36;;;;;;;1.83;1.58;;;;;;;33.56;32.74;100669.91;5016376;28;20219;-75
2022/08/04 09:51:14;;;;;;;2.25;1.90;;;;;;;33.54;33.12;100680.94;5014554;28;20219;-74
2022/08/04 09:53:50;;;;;;;1.30;1.20;;;;;;;33.51;32.47;100672.34;5018212;28;20202;-74
2022/08/04 09:56:24;;;;;;;1.95;1.65;;;;;;;33.60;32.53;100673.91;5022683;28;20848;-75
2022/08/04 09:59:05;;;;;;;1.75;1.60;;;;;;;33.69;32.66;100667.41;5014378;28;20709;-75
2022/08/04 10:01:34;;;;;;;1.50;1.40;;;;;;;33.67;32.19;100668.63;4996501;28;20287;-75
2022/08/04 10:04:03;;;;;;;1.45;1.35;;;;;;;33.64;31.88;100664.38;5017662;28;20205;-75
2022/08/04 10:07:08;;;;;;;1.92;1.60;;;;;;;33.76;32.98;100673.72;5019011;28;20192;-75
2022/08/04 10:09:47;;;;;;;1.75;1.50;;;;;;;33.75;31.77;100672.00;4932910;29;20203;-74
2022/08/04 10:12:30;;;;;;;2.08;1.48;;;;;;;33.82;32.03;100666.69;5008345;28;20767;-75
2022/08/04 10:15:08;;;;;;;1.40;1.30;;;;;;;33.67;31.36;100666.75;5016256;28;20229;-74
2022/08/04 10:17:43;;;;;;;1.48;1.38;;;;;;;33.80;31.88;100665.22;5015547;28;20618;-75
2022/08/04 10:20:19;;;;;;;3.83;1.73;;;;;;;33.90;31.92;100661.16;5013655;28;20199;-74
2022/08/04 10:22:58;;;;;;;1.60;1.50;;;;;;;34.06;31.23;100651.13;4999936;28;20191;-74
2022/08/04 10:25:39;;;;;;;1.67;1.58;;;;;;;34.14;31.81;100654.53;5013623;28;20199;-75
2022/08/04 10:28:10;;;;;;;1.65;1.55;;;;;;;34.12;31.33;100653.88;5010549;28;20290;-75
2022/08/04 10:30:42;;;;;;;1.95;1.60;;;;;;;34.24;31.78;100648.81;5001973;28;20232;-75
2022/08/04 10:33:15;;;;;;;1.75;1.45;;;;;;;34.28;31.64;100638.44;5015637;28;20205;-75
2022/08/04 10:35:48;;;;;;;1.70;1.60;;;;;;;34.20;32.18;100630.47;5012112;28;20673;-75
2022/08/04 10:38:22;;;;;;;1.50;1.40;;;;;;;34.34;31.84;100640.38;5011334;28;20228;-75
2022/08/04 10:40:56;;;;;;;1.75;1.50;;;;;;;34.40;30.52;100633.34;5009755;28;20710;-75
2022/08/04 10:43:37;;;;;;;2.78;1.52;;;;;;;34.53;30.76;100628.03;5012179;28;20269;-75
2022/08/04 10:46:08;;;;;;;1.52;1.42;;;;;;;34.57;31.50;100618.47;4994287;28;20200;-75
2022/08/04 10:48:43;;;;;;;1.88;1.40;;;;;;;34.70;30.32;100629.38;5014528;28;20219;-75
2022/08/04 10:51:19;;;;;;;1.60;1.50;;;;;;;34.82;29.77;100624.25;5019555;28;20215;-75
2022/08/04 10:53:54;;;;;;;1.90;1.65;;;;;;;34.88;29.07;100625.31;5019185;28;20851;-75
2022/08/04 10:56:29;;;;;;;2.03;1.48;;;;;;;34.83;29.93;100634.06;5021470;28;20683;-75
2022/08/04 10:59:02;;;;;;;1.35;1.25;;;;;;;34.70;29.95;100628.56;5017710;28;20253;-75
2022/08/04 11:01:35;;;;;;;1.40;1.30;;;;;;;34.70;30.38;100625.84;5016722;28;20554;-75
2022/08/04 11:04:05;;;;;;;1.65;1.48;;;;;;;34.85;29.13;100628.47;5021976;28;20206;-75
2022/08/04 11:06:33;;;;;;;1.80;1.70;;;;;;;34.91;29.56;100618.69;5017409;28;20207;-75
2022/08/04 11:09:02;;;;;;;1.55;1.45;;;;;;;34.76;29.18;100624.22;5018822;28;20196;-75
2022/08/04 11:11:32;;;;;;;1.40;1.30;;;;;;;34.57;29.29;100629.28;5014119;28;20587;-75
2022/08/04 11:14:04;;;;;;;1.60;1.50;;;;;;;34.52;30.31;100615.50;5017203;28;20197;-76
2022/08/04 11:16:38;;;;;;;1.60;1.50;;;;;;;34.41;30.32;100619.59;5014486;28;20242;-76
2022/08/04 11:19:21;;;;;;;1.70;1.60;;;;;;;34.52;28.71;100615.50;5019534;28;20297;-76
2022/08/04 11:21:55;;;;;;;1.60;1.50;;;;;;;34.71;28.92;100614.00;5013902;28;20207;-76
2022/08/04 11:24:26;;;;;;;1.40;1.30;;;;;;;34.85;29.24;100607.63;5016120;28;20211;-76
2022/08/04 11:27:00;;;;;;;1.70;1.60;;;;;;;35.09;28.90;100610.84;5020307;28;20228;-76
2022/08/04 11:29:34;;;;;;;1.60;1.50;;;;;;;35.15;28.85;100611.94;5021448;28;20258;-76
2022/08/04 11:32:05;;;;;;;1.73;1.60;;;;;;;35.13;27.59;100616.69;5016059;28;20773;-76
2022/08/04 11:34:34;;;;;;;1.88;1.75;;;;;;;35.28;28.00;100620.13;5005319;28;20686;-75
2022/08/04 11:37:09;;;;;;;1.63;1.50;;;;;;;35.40;26.86;100623.09;5017022;28;20228;-76
2022/08/04 11:39:40;;;;;;;1.60;1.50;;;;;;;35.36;26.54;100617.25;4999932;28;20211;-76
2022/08/04 11:42:18;;;;;;;2.08;1.50;;;;;;;35.37;26.09;100618.91;5017835;28;20203;-76
2022/08/04 11:44:49;;;;;;;4.00;1.40;;;;;;;35.44;27.34;100613.50;5011591;28;20208;-76
2022/08/04 11:47:29;;;;;;;2.63;1.27;;;;;;;35.41;25.98;100606.63;5015012;28;20227;-76
2022/08/04 11:50:03;;;;;;;1.35;1.25;;;;;;;35.56;28.20;100608.31;4997112;28;20204;-76
2022/08/04 11:52:32;;;;;;;1.67;1.58;;;;;;;35.37;31.41;100593.69;5021838;28;20310;-76
2022/08/04 11:55:02;;;;;;;1.60;1.50;;;;;;;35.28;28.36;100601.16;5002629;28;20701;-76
2022/08/04 11:57:29;;;;;;;3.35;1.70;;;;;;;35.39;30.81;100592.44;5014814;28;20294;-76
2022/08/04 11:59:57;;;;;;;1.60;1.50;;;;;;;35.48;28.24;100594.97;5016817;28;20667;-76
2022/08/04 12:02:48;;;;;;;2.03;1.80;;;;;;;35.59;28.76;100592.50;5017983;28;20219;-76
2022/08/04 12:05:19;;;;;;;1.77;1.67;;;;;;;35.57;26.45;100597.28;5019355;28;20247;-76